Donnacona, Canada
Current Conditions -  °F | °C
As of 7:23 AM on Sunday 23 Nov 2014 (Local Time) from CYQB Reporting Station
Haze Haze  
Wind Chill: 25°   Ceiling: 600
Heat Index: 34°   Visibility: 1.5mi
Dew Point: 34°   Wind: 13mph
Humidity: 100%   Direction: 250°WSW
Pressure: 29.96"   Gusts: NA
Location:  46.67°N, 71.73°W
Report Text: CYQB 231223Z 25011KT 1 1/2SM BR BKN006 OVC063 01/01 A2996 RMK FG2ST5SC1 CIG VRB 4-8 SLP147
Loading
Personal Weather Stations






























Interactive Weather Map New forecast layout! Learn more

10-Day Weather Forecast

Advertisements
Track Severe Weather on mobile